sensor_id;sensor_type;location;lat;lon;timestamp;pressure;altitude;pressure_sealevel;temperature;humidity
77279;BME280;66332;50.436;15.378;2023-02-28T00:02:03;99475.47;;;-1.53;69.24
77279;BME280;66332;50.436;15.378;2023-02-28T00:06:44;99472.31;;;-1.41;68.43
77279;BME280;66332;50.436;15.378;2023-02-28T00:11:25;99477.16;;;-1.52;68.80
77279;BME280;66332;50.436;15.378;2023-02-28T00:16:08;99474.03;;;-1.59;68.72
77279;BME280;66332;50.436;15.378;2023-02-28T00:20:49;99478.28;;;-1.58;69.29
77279;BME280;66332;50.436;15.378;2023-02-28T00:25:31;99456.34;;;-1.67;69.55
77279;BME280;66332;50.436;15.378;2023-02-28T00:30:15;99459.56;;;-1.80;68.76
77279;BME280;66332;50.436;15.378;2023-02-28T00:34:56;99479.59;;;-1.68;69.24
77279;BME280;66332;50.436;15.378;2023-02-28T00:39:38;99485.81;;;-1.72;69.30
77279;BME280;66332;50.436;15.378;2023-02-28T00:44:19;99476.28;;;-1.70;69.33
77279;BME280;66332;50.436;15.378;2023-02-28T00:49:02;99483.50;;;-1.59;68.96
77279;BME280;66332;50.436;15.378;2023-02-28T00:53:43;99437.00;;;-1.94;68.14
77279;BME280;66332;50.436;15.378;2023-02-28T00:58:24;99456.09;;;-1.79;68.74
77279;BME280;66332;50.436;15.378;2023-02-28T01:03:05;99478.94;;;-1.72;68.47
77279;BME280;66332;50.436;15.378;2023-02-28T01:07:46;99478.00;;;-1.71;68.64
77279;BME280;66332;50.436;15.378;2023-02-28T01:12:26;99480.13;;;-1.79;68.50
77279;BME280;66332;50.436;15.378;2023-02-28T01:17:08;99479.00;;;-1.92;68.16
77279;BME280;66332;50.436;15.378;2023-02-28T01:21:48;99476.22;;;-1.88;68.04
77279;BME280;66332;50.436;15.378;2023-02-28T01:26:30;99438.41;;;-2.06;67.64
77279;BME280;66332;50.436;15.378;2023-02-28T01:31:12;99460.06;;;-1.91;67.93
77279;BME280;66332;50.436;15.378;2023-02-28T01:36:00;99467.28;;;-1.80;67.43
77279;BME280;66332;50.436;15.378;2023-02-28T01:40:41;99461.19;;;-1.97;68.51
77279;BME280;66332;50.436;15.378;2023-02-28T01:45:28;99471.91;;;-2.06;68.55
77279;BME280;66332;50.436;15.378;2023-02-28T01:50:16;99460.72;;;-2.25;68.80
77279;BME280;66332;50.436;15.378;2023-02-28T01:55:01;99462.63;;;-2.10;68.08
77279;BME280;66332;50.436;15.378;2023-02-28T02:00:00;99464.38;;;-2.11;68.41
77279;BME280;66332;50.436;15.378;2023-02-28T02:05:06;99460.59;;;-2.22;68.50
77279;BME280;66332;50.436;15.378;2023-02-28T02:09:48;99463.44;;;-2.28;68.24
77279;BME280;66332;50.436;15.378;2023-02-28T02:14:43;99465.06;;;-2.26;68.23
77279;BME280;66332;50.436;15.378;2023-02-28T02:30:15;99458.91;;;-2.42;70.00
77279;BME280;66332;50.436;15.378;2023-02-28T02:35:29;99460.22;;;-2.52;70.29
77279;BME280;66332;50.436;15.378;2023-02-28T02:40:20;99464.03;;;-2.61;69.33
77279;BME280;66332;50.436;15.378;2023-02-28T02:45:10;99445.19;;;-2.62;70.15
77279;BME280;66332;50.436;15.378;2023-02-28T02:49:55;99451.03;;;-2.79;70.26
77279;BME280;66332;50.436;15.378;2023-02-28T02:54:38;99454.00;;;-2.67;70.16
77279;BME280;66332;50.436;15.378;2023-02-28T02:59:22;99452.81;;;-2.60;68.86
77279;BME280;66332;50.436;15.378;2023-02-28T03:04:08;99461.94;;;-2.53;69.63
77279;BME280;66332;50.436;15.378;2023-02-28T03:08:49;99466.09;;;-2.69;69.13
77279;BME280;66332;50.436;15.378;2023-02-28T03:13:54;99471.03;;;-2.65;68.50
77279;BME280;66332;50.436;15.378;2023-02-28T03:18:54;99465.97;;;-2.66;68.49
77279;BME280;66332;50.436;15.378;2023-02-28T03:28:43;99459.72;;;-2.81;68.48
77279;BME280;66332;50.436;15.378;2023-02-28T03:33:35;99458.94;;;-2.83;68.87
77279;BME280;66332;50.436;15.378;2023-02-28T03:38:36;99460.63;;;-2.82;68.44
77279;BME280;66332;50.436;15.378;2023-02-28T03:43:23;99457.22;;;-2.83;67.99
77279;BME280;66332;50.436;15.378;2023-02-28T03:48:18;99459.69;;;-2.80;67.92
77279;BME280;66332;50.436;15.378;2023-02-28T03:53:06;99461.16;;;-2.94;68.09
77279;BME280;66332;50.436;15.378;2023-02-28T04:03:05;99461.91;;;-2.92;67.98
77279;BME280;66332;50.436;15.378;2023-02-28T04:07:47;99456.84;;;-2.94;67.78
77279;BME280;66332;50.436;15.378;2023-02-28T04:12:28;99432.41;;;-3.04;68.09
77279;BME280;66332;50.436;15.378;2023-02-28T04:17:10;99449.13;;;-2.94;67.73
77279;BME280;66332;50.436;15.378;2023-02-28T04:21:52;99454.00;;;-2.88;67.23
77279;BME280;66332;50.436;15.378;2023-02-28T04:26:35;99453.34;;;-2.93;67.11
77279;BME280;66332;50.436;15.378;2023-02-28T04:31:16;99461.59;;;-2.85;65.99
77279;BME280;66332;50.436;15.378;2023-02-28T04:36:02;99458.50;;;-2.93;66.47
77279;BME280;66332;50.436;15.378;2023-02-28T04:40:43;99448.72;;;-3.05;66.89
77279;BME280;66332;50.436;15.378;2023-02-28T04:45:24;99468.88;;;-2.94;65.89
77279;BME280;66332;50.436;15.378;2023-02-28T04:50:05;99462.25;;;-3.00;66.88
77279;BME280;66332;50.436;15.378;2023-02-28T04:54:46;99465.72;;;-3.01;66.29
77279;BME280;66332;50.436;15.378;2023-02-28T04:59:27;99471.03;;;-3.06;66.24
77279;BME280;66332;50.436;15.378;2023-02-28T05:04:15;99465.78;;;-3.03;66.75
77279;BME280;66332;50.436;15.378;2023-02-28T05:08:57;99481.28;;;-3.04;65.87
77279;BME280;66332;50.436;15.378;2023-02-28T05:13:38;99486.56;;;-3.07;65.82
77279;BME280;66332;50.436;15.378;2023-02-28T05:18:19;99487.50;;;-3.10;65.98
77279;BME280;66332;50.436;15.378;2023-02-28T05:23:01;99458.81;;;-3.21;66.36
77279;BME280;66332;50.436;15.378;2023-02-28T05:27:42;99476.63;;;-3.16;66.83
77279;BME280;66332;50.436;15.378;2023-02-28T05:32:23;99493.78;;;-3.17;66.91
77279;BME280;66332;50.436;15.378;2023-02-28T05:37:05;99451.88;;;-3.41;66.48
77279;BME280;66332;50.436;15.378;2023-02-28T05:41:46;99483.44;;;-3.15;65.89
77279;BME280;66332;50.436;15.378;2023-02-28T05:46:26;99500.13;;;-3.04;66.52
77279;BME280;66332;50.436;15.378;2023-02-28T05:51:08;99505.75;;;-3.16;67.58
77279;BME280;66332;50.436;15.378;2023-02-28T05:55:49;99506.59;;;-3.15;66.15
77279;BME280;66332;50.436;15.378;2023-02-28T06:00:30;99508.09;;;-3.10;67.68
77279;BME280;66332;50.436;15.378;2023-02-28T06:05:16;99520.81;;;-3.07;66.83
77279;BME280;66332;50.436;15.378;2023-02-28T06:09:57;99501.13;;;-3.08;65.54
77279;BME280;66332;50.436;15.378;2023-02-28T06:14:38;99529.03;;;-2.77;65.73
77279;BME280;66332;50.436;15.378;2023-02-28T06:19:19;99529.34;;;-2.64;64.28
77279;BME280;66332;50.436;15.378;2023-02-28T06:24:00;99534.91;;;-2.52;64.27
77279;BME280;66332;50.436;15.378;2023-02-28T06:28:41;99534.16;;;-2.36;62.91
77279;BME280;66332;50.436;15.378;2023-02-28T06:33:22;99540.03;;;-2.32;62.95
77279;BME280;66332;50.436;15.378;2023-02-28T06:38:03;99552.16;;;-1.95;61.62
77279;BME280;66332;50.436;15.378;2023-02-28T06:42:44;99546.72;;;-1.89;61.80
77279;BME280;66332;50.436;15.378;2023-02-28T06:47:25;99561.09;;;-1.64;61.77
77279;BME280;66332;50.436;15.378;2023-02-28T06:52:06;99558.97;;;-1.56;61.13
77279;BME280;66332;50.436;15.378;2023-02-28T06:56:47;99562.53;;;-1.40;60.60
77279;BME280;66332;50.436;15.378;2023-02-28T07:01:28;99555.03;;;-1.08;60.38
77279;BME280;66332;50.436;15.378;2023-02-28T07:06:09;99560.91;;;-1.23;58.63
77279;BME280;66332;50.436;15.378;2023-02-28T07:10:54;99561.25;;;-0.95;56.66
77279;BME280;66332;50.436;15.378;2023-02-28T07:15:36;99542.75;;;-0.85;56.33
77279;BME280;66332;50.436;15.378;2023-02-28T07:20:17;99563.88;;;-0.77;57.12
77279;BME280;66332;50.436;15.378;2023-02-28T07:24:58;99559.84;;;-0.65;55.60
77279;BME280;66332;50.436;15.378;2023-02-28T07:29:39;99565.31;;;-0.37;54.75
77279;BME280;66332;50.436;15.378;2023-02-28T07:34:20;99581.28;;;-0.46;54.42
77279;BME280;66332;50.436;15.378;2023-02-28T07:39:01;99576.88;;;-0.27;54.93
77279;BME280;66332;50.436;15.378;2023-02-28T07:43:42;99577.28;;;-0.18;54.71
77279;BME280;66332;50.436;15.378;2023-02-28T07:48:23;99581.41;;;0.03;54.61
77279;BME280;66332;50.436;15.378;2023-02-28T07:53:04;99589.88;;;0.05;53.42
77279;BME280;66332;50.436;15.378;2023-02-28T07:57:45;99588.34;;;0.18;52.90
77279;BME280;66332;50.436;15.378;2023-02-28T08:02:25;99589.44;;;0.30;54.34
77279;BME280;66332;50.436;15.378;2023-02-28T08:07:06;99579.34;;;0.26;52.99
77279;BME280;66332;50.436;15.378;2023-02-28T08:11:47;99573.56;;;0.20;51.82
77279;BME280;66332;50.436;15.378;2023-02-28T08:16:28;99590.31;;;0.62;51.64
77279;BME280;66332;50.436;15.378;2023-02-28T08:21:10;99586.38;;;0.87;51.73
77279;BME280;66332;50.436;15.378;2023-02-28T08:25:55;99585.03;;;0.64;50.93
77279;BME280;66332;50.436;15.378;2023-02-28T08:30:36;99577.34;;;0.94;52.04
77279;BME280;66332;50.436;15.378;2023-02-28T08:35:17;99573.69;;;0.66;50.30
77279;BME280;66332;50.436;15.378;2023-02-28T08:39:58;99579.56;;;0.70;49.49
77279;BME280;66332;50.436;15.378;2023-02-28T08:44:39;99585.13;;;0.94;50.31
77279;BME280;66332;50.436;15.378;2023-02-28T08:49:21;99591.44;;;1.20;49.76
77279;BME280;66332;50.436;15.378;2023-02-28T08:54:02;99582.41;;;1.27;48.79
77279;BME280;66332;50.436;15.378;2023-02-28T08:58:44;99578.94;;;1.43;48.19
77279;BME280;66332;50.436;15.378;2023-02-28T09:03:25;99581.22;;;1.63;49.79
77279;BME280;66332;50.436;15.378;2023-02-28T09:08:07;99584.56;;;1.65;47.92
77279;BME280;66332;50.436;15.378;2023-02-28T09:12:47;99585.19;;;2.13;47.32
77279;BME280;66332;50.436;15.378;2023-02-28T09:17:28;99579.69;;;2.03;47.71
77279;BME280;66332;50.436;15.378;2023-02-28T09:22:10;99581.81;;;1.97;47.31
77279;BME280;66332;50.436;15.378;2023-02-28T09:26:51;99557.22;;;1.59;47.28
77279;BME280;66332;50.436;15.378;2023-02-28T09:31:32;99582.50;;;2.29;46.10
77279;BME280;66332;50.436;15.378;2023-02-28T09:36:14;99575.19;;;2.77;46.14
77279;BME280;66332;50.436;15.378;2023-02-28T09:40:57;99594.22;;;3.05;44.25
77279;BME280;66332;50.436;15.378;2023-02-28T09:45:41;99597.94;;;3.01;43.66
77279;BME280;66332;50.436;15.378;2023-02-28T10:05:12;99600.28;;;3.45;43.04
77279;BME280;66332;50.436;15.378;2023-02-28T10:09:57;99602.84;;;3.05;44.19
77279;BME280;66332;50.436;15.378;2023-02-28T10:14:45;99600.63;;;3.66;43.56
77279;BME280;66332;50.436;15.378;2023-02-28T10:19:35;99599.13;;;3.49;43.66
77279;BME280;66332;50.436;15.378;2023-02-28T10:24:28;99593.75;;;3.65;44.16
77279;BME280;66332;50.436;15.378;2023-02-28T10:29:11;99587.03;;;4.01;42.60
77279;BME280;66332;50.436;15.378;2023-02-28T10:33:51;99571.34;;;3.50;44.06
77279;BME280;66332;50.436;15.378;2023-02-28T10:38:35;99577.22;;;3.91;42.90
77279;BME280;66332;50.436;15.378;2023-02-28T10:43:18;99578.47;;;4.24;41.24
77279;BME280;66332;50.436;15.378;2023-02-28T10:48:06;99576.59;;;3.75;42.63
77279;BME280;66332;50.436;15.378;2023-02-28T10:57:55;99555.13;;;4.23;40.93
77279;BME280;66332;50.436;15.378;2023-02-28T11:02:36;99561.63;;;4.67;40.97
77279;BME280;66332;50.436;15.378;2023-02-28T11:07:25;99567.78;;;3.90;41.31
77279;BME280;66332;50.436;15.378;2023-02-28T11:12:37;99554.94;;;4.39;40.41
77279;BME280;66332;50.436;15.378;2023-02-28T11:17:28;99549.66;;;4.88;39.48
77279;BME280;66332;50.436;15.378;2023-02-28T11:22:09;99555.72;;;4.89;40.05
77279;BME280;66332;50.436;15.378;2023-02-28T11:26:51;99548.94;;;5.10;39.36
77279;BME280;66332;50.436;15.378;2023-02-28T11:31:32;99528.22;;;5.20;38.55
77279;BME280;66332;50.436;15.378;2023-02-28T11:36:24;99535.41;;;5.40;37.24
77279;BME280;66332;50.436;15.378;2023-02-28T11:46:52;99532.31;;;5.35;39.45
77279;BME280;66332;50.436;15.378;2023-02-28T11:51:47;99537.69;;;5.10;39.14
77279;BME280;66332;50.436;15.378;2023-02-28T11:56:36;99518.50;;;4.87;39.25
77279;BME280;66332;50.436;15.378;2023-02-28T12:06:28;99520.22;;;5.92;37.10
77279;BME280;66332;50.436;15.378;2023-02-28T12:16:35;99507.59;;;5.17;38.36
77279;BME280;66332;50.436;15.378;2023-02-28T12:26:28;99505.72;;;5.54;38.21
77279;BME280;66332;50.436;15.378;2023-02-28T12:36:05;99505.16;;;4.91;40.13
77279;BME280;66332;50.436;15.378;2023-02-28T12:45:48;99488.75;;;5.71;39.55
77279;BME280;66332;50.436;15.378;2023-02-28T12:50:32;99471.22;;;5.15;39.74
77279;BME280;66332;50.436;15.378;2023-02-28T13:00:29;99470.22;;;5.63;39.96
77279;BME280;66332;50.436;15.378;2023-02-28T13:10:49;99477.25;;;6.30;36.97
77279;BME280;66332;50.436;15.378;2023-02-28T13:15:34;99471.19;;;5.04;40.00
77279;BME280;66332;50.436;15.378;2023-02-28T13:20:24;99474.03;;;5.59;38.96
77279;BME280;66332;50.436;15.378;2023-02-28T13:31:04;99460.41;;;5.89;38.26
77279;BME280;66332;50.436;15.378;2023-02-28T13:35:37;99447.09;;;6.37;36.63
77279;BME280;66332;50.436;15.378;2023-02-28T13:40:30;99452.22;;;5.60;38.49
77279;BME280;66332;50.436;15.378;2023-02-28T13:45:27;99460.88;;;8.47;33.09
77279;BME280;66332;50.436;15.378;2023-02-28T14:09:28;99445.31;;;8.55;32.58
77279;BME280;66332;50.436;15.378;2023-02-28T14:19:24;99444.56;;;7.93;33.59
77279;BME280;66332;50.436;15.378;2023-02-28T14:29:44;99435.28;;;7.49;34.50
77279;BME280;66332;50.436;15.378;2023-02-28T14:39:20;99431.84;;;8.19;38.88
77279;BME280;66332;50.436;15.378;2023-02-28T14:44:25;99423.03;;;7.80;36.70
77279;BME280;66332;50.436;15.378;2023-02-28T14:49:06;99432.88;;;6.62;36.38
77279;BME280;66332;50.436;15.378;2023-02-28T14:53:56;99428.84;;;5.81;38.95
77279;BME280;66332;50.436;15.378;2023-02-28T14:58:37;99426.09;;;5.15;39.94
77279;BME280;66332;50.436;15.378;2023-02-28T15:03:22;99421.63;;;5.39;39.50
77279;BME280;66332;50.436;15.378;2023-02-28T15:08:13;99412.97;;;5.50;39.41
77279;BME280;66332;50.436;15.378;2023-02-28T15:13:00;99422.84;;;6.03;37.93
77279;BME280;66332;50.436;15.378;2023-02-28T15:17:45;99416.41;;;6.82;50.59
77279;BME280;66332;50.436;15.378;2023-02-28T15:22:31;99422.22;;;6.86;37.17
77279;BME280;66332;50.436;15.378;2023-02-28T15:32:06;99415.44;;;6.51;38.81
77279;BME280;66332;50.436;15.378;2023-02-28T15:36:48;99407.94;;;6.26;38.31
77279;BME280;66332;50.436;15.378;2023-02-28T15:41:29;99410.69;;;6.13;40.45
77279;BME280;66332;50.436;15.378;2023-02-28T15:46:12;99411.66;;;5.56;40.29
77279;BME280;66332;50.436;15.378;2023-02-28T15:51:07;99423.16;;;5.42;42.86
77279;BME280;66332;50.436;15.378;2023-02-28T15:55:54;99417.13;;;4.95;46.34
77279;BME280;66332;50.436;15.378;2023-02-28T16:00:36;99422.69;;;4.55;46.72
77279;BME280;66332;50.436;15.378;2023-02-28T16:10:11;99422.53;;;3.20;49.28
77279;BME280;66332;50.436;15.378;2023-02-28T16:14:53;99412.59;;;2.62;52.71
77279;BME280;66332;50.436;15.378;2023-02-28T16:19:34;99420.41;;;2.20;54.62
77279;BME280;66332;50.436;15.378;2023-02-28T16:24:15;99435.47;;;2.01;55.24
77279;BME280;66332;50.436;15.378;2023-02-28T16:28:57;99435.88;;;1.66;53.85
77279;BME280;66332;50.436;15.378;2023-02-28T16:33:41;99431.97;;;1.45;56.38
77279;BME280;66332;50.436;15.378;2023-02-28T16:38:22;99454.41;;;1.15;57.22
77279;BME280;66332;50.436;15.378;2023-02-28T16:43:08;99439.97;;;1.11;59.18
77279;BME280;66332;50.436;15.378;2023-02-28T16:47:55;99460.34;;;0.87;59.23
77279;BME280;66332;50.436;15.378;2023-02-28T16:52:36;99434.44;;;0.73;59.15
77279;BME280;66332;50.436;15.378;2023-02-28T16:57:22;99464.34;;;0.63;59.97
77279;BME280;66332;50.436;15.378;2023-02-28T17:02:11;99468.38;;;0.53;59.56
77279;BME280;66332;50.436;15.378;2023-02-28T17:06:53;99468.13;;;0.41;60.15
77279;BME280;66332;50.436;15.378;2023-02-28T17:11:34;99468.56;;;0.34;60.00
77279;BME280;66332;50.436;15.378;2023-02-28T17:16:32;99467.19;;;0.27;61.15
77279;BME280;66332;50.436;15.378;2023-02-28T17:21:15;99467.13;;;0.12;61.89
77279;BME280;66332;50.436;15.378;2023-02-28T17:25:56;99458.13;;;0.04;62.39
77279;BME280;66332;50.436;15.378;2023-02-28T17:30:37;99466.59;;;-0.10;63.20
77279;BME280;66332;50.436;15.378;2023-02-28T17:35:18;99450.25;;;-0.27;62.55
77279;BME280;66332;50.436;15.378;2023-02-28T17:40:00;99476.09;;;-0.11;60.83
77279;BME280;66332;50.436;15.378;2023-02-28T17:44:43;99470.69;;;-0.06;60.06
77279;BME280;66332;50.436;15.378;2023-02-28T17:49:29;99476.78;;;-0.07;59.46
77279;BME280;66332;50.436;15.378;2023-02-28T17:54:10;99476.56;;;0.13;59.59
77279;BME280;66332;50.436;15.378;2023-02-28T17:58:53;99459.41;;;-0.21;60.77
77279;BME280;66332;50.436;15.378;2023-02-28T18:03:34;99475.41;;;-0.30;61.66
77279;BME280;66332;50.436;15.378;2023-02-28T18:08:15;99470.44;;;-0.17;61.08
77279;BME280;66332;50.436;15.378;2023-02-28T18:12:56;99472.66;;;-0.27;62.02
77279;BME280;66332;50.436;15.378;2023-02-28T18:17:37;99473.22;;;-0.38;61.71
77279;BME280;66332;50.436;15.378;2023-02-28T18:22:21;99474.53;;;-0.47;62.82
77279;BME280;66332;50.436;15.378;2023-02-28T18:27:02;99441.41;;;-0.56;63.10
77279;BME280;66332;50.436;15.378;2023-02-28T18:31:44;99465.16;;;-0.49;63.02
77279;BME280;66332;50.436;15.378;2023-02-28T18:36:25;99460.78;;;-0.64;62.75
77279;BME280;66332;50.436;15.378;2023-02-28T18:41:06;99466.09;;;-0.50;62.71
77279;BME280;66332;50.436;15.378;2023-02-28T18:45:48;99466.94;;;-0.50;62.71
77279;BME280;66332;50.436;15.378;2023-02-28T18:50:29;99462.28;;;-0.43;62.95
77279;BME280;66332;50.436;15.378;2023-02-28T18:55:10;99447.41;;;-0.55;63.92
77279;BME280;66332;50.436;15.378;2023-02-28T18:59:52;99456.50;;;-0.64;63.98
77279;BME280;66332;50.436;15.378;2023-02-28T19:04:32;99460.63;;;-0.44;64.31
77279;BME280;66332;50.436;15.378;2023-02-28T19:09:19;99437.22;;;-0.58;64.58
77279;BME280;66332;50.436;15.378;2023-02-28T19:14:01;99450.09;;;-0.57;64.50
77279;BME280;66332;50.436;15.378;2023-02-28T19:18:42;99431.25;;;-0.76;65.54
77279;BME280;66332;50.436;15.378;2023-02-28T19:23:24;99450.72;;;-0.86;66.67
77279;BME280;66332;50.436;15.378;2023-02-28T19:28:05;99466.53;;;-0.75;66.02
77279;BME280;66332;50.436;15.378;2023-02-28T19:32:47;99464.66;;;-0.73;66.33
77279;BME280;66332;50.436;15.378;2023-02-28T19:37:28;99474.78;;;-0.68;67.66
77279;BME280;66332;50.436;15.378;2023-02-28T19:42:12;99477.34;;;-0.51;67.39
77279;BME280;66332;50.436;15.378;2023-02-28T19:46:53;99477.16;;;-0.64;67.53
77279;BME280;66332;50.436;15.378;2023-02-28T19:51:34;99482.47;;;-0.84;68.00
77279;BME280;66332;50.436;15.378;2023-02-28T19:56:17;99469.47;;;-0.83;67.42
77279;BME280;66332;50.436;15.378;2023-02-28T20:01:15;99482.53;;;-0.68;66.69
77279;BME280;66332;50.436;15.378;2023-02-28T20:06:04;99473.44;;;-0.76;67.59
77279;BME280;66332;50.436;15.378;2023-02-28T20:10:46;99481.53;;;-0.83;67.12
77279;BME280;66332;50.436;15.378;2023-02-28T20:15:27;99480.94;;;-0.71;67.33
77279;BME280;66332;50.436;15.378;2023-02-28T20:20:09;99460.06;;;-0.84;67.46
77279;BME280;66332;50.436;15.378;2023-02-28T20:24:51;99449.31;;;-1.09;67.72
77279;BME280;66332;50.436;15.378;2023-02-28T20:29:34;99462.34;;;-0.78;66.52
77279;BME280;66332;50.436;15.378;2023-02-28T20:34:15;99464.38;;;-0.67;65.30
77279;BME280;66332;50.436;15.378;2023-02-28T20:38:57;99478.19;;;-0.68;64.91
77279;BME280;66332;50.436;15.378;2023-02-28T20:43:39;99476.16;;;-0.79;65.44
77279;BME280;66332;50.436;15.378;2023-02-28T20:48:20;99463.63;;;-0.86;65.43
77279;BME280;66332;50.436;15.378;2023-02-28T20:53:01;99466.88;;;-0.83;64.94
77279;BME280;66332;50.436;15.378;2023-02-28T20:57:42;99467.25;;;-0.73;64.85
77279;BME280;66332;50.436;15.378;2023-02-28T21:02:23;99475.78;;;-0.71;64.40
77279;BME280;66332;50.436;15.378;2023-02-28T21:07:06;99466.00;;;-0.82;65.05
77279;BME280;66332;50.436;15.378;2023-02-28T21:11:47;99457.47;;;-1.01;65.74
77279;BME280;66332;50.436;15.378;2023-02-28T21:16:29;99461.03;;;-0.86;65.64
77279;BME280;66332;50.436;15.378;2023-02-28T21:21:15;99466.31;;;-0.88;65.25
77279;BME280;66332;50.436;15.378;2023-02-28T21:26:09;99460.22;;;-0.87;65.23
77279;BME280;66332;50.436;15.378;2023-02-28T21:30:51;99458.78;;;-0.93;65.45
77279;BME280;66332;50.436;15.378;2023-02-28T21:35:32;99464.19;;;-0.97;66.01
77279;BME280;66332;50.436;15.378;2023-02-28T21:40:12;99476.75;;;-1.26;67.29
77279;BME280;66332;50.436;15.378;2023-02-28T21:44:54;99484.16;;;-1.37;67.91
77279;BME280;66332;50.436;15.378;2023-02-28T21:49:37;99484.94;;;-1.35;68.74
77279;BME280;66332;50.436;15.378;2023-02-28T21:54:18;99476.44;;;-1.73;69.81
77279;BME280;66332;50.436;15.378;2023-02-28T21:59:00;99482.28;;;-1.70;70.92
77279;BME280;66332;50.436;15.378;2023-02-28T22:03:43;99484.16;;;-1.73;71.51
77279;BME280;66332;50.436;15.378;2023-02-28T22:08:24;99476.41;;;-1.92;72.09
77279;BME280;66332;50.436;15.378;2023-02-28T22:13:05;99473.22;;;-1.78;72.21
77279;BME280;66332;50.436;15.378;2023-02-28T22:17:46;99477.13;;;-1.89;72.29
77279;BME280;66332;50.436;15.378;2023-02-28T22:22:27;99481.75;;;-1.59;70.34
77279;BME280;66332;50.436;15.378;2023-02-28T22:27:08;99482.22;;;-1.87;70.71
77279;BME280;66332;50.436;15.378;2023-02-28T22:31:49;99474.75;;;-1.74;70.12
77279;BME280;66332;50.436;15.378;2023-02-28T22:36:31;99486.38;;;-1.85;71.19
77279;BME280;66332;50.436;15.378;2023-02-28T22:41:12;99465.50;;;-1.97;71.48
77279;BME280;66332;50.436;15.378;2023-02-28T22:45:53;99495.09;;;-1.87;71.10
77279;BME280;66332;50.436;15.378;2023-02-28T22:50:34;99493.34;;;-2.05;70.90
